sensor_id;sensor_type;location;lat;lon;timestamp;P1;durP1;ratioP1;P2;durP2;ratioP2
16743;SDS011;71724;-33.900;151.182;2023-07-30T00:00:43;6.03;;;3.60;;
16743;SDS011;71724;-33.900;151.182;2023-07-30T00:03:10;5.85;;;3.13;;
16743;SDS011;71724;-33.900;151.182;2023-07-30T00:05:38;4.53;;;3.13;;
16743;SDS011;71724;-33.900;151.182;2023-07-30T00:08:06;4.90;;;3.50;;
16743;SDS011;71724;-33.900;151.182;2023-07-30T00:10:35;6.43;;;3.15;;
16743;SDS011;71724;-33.900;151.182;2023-07-30T00:13:02;5.82;;;3.33;;
16743;SDS011;71724;-33.900;151.182;2023-07-30T00:15:29;5.70;;;3.53;;
16743;SDS011;71724;-33.900;151.182;2023-07-30T00:17:57;5.53;;;2.97;;
16743;SDS011;71724;-33.900;151.182;2023-07-30T00:20:25;4.70;;;2.80;;
16743;SDS011;71724;-33.900;151.182;2023-07-30T00:22:53;4.82;;;3.05;;
16743;SDS011;71724;-33.900;151.182;2023-07-30T00:25:20;4.60;;;2.80;;
16743;SDS011;71724;-33.900;151.182;2023-07-30T00:27:48;5.18;;;2.90;;
16743;SDS011;71724;-33.900;151.182;2023-07-30T00:30:15;4.25;;;2.72;;
16743;SDS011;71724;-33.900;151.182;2023-07-30T00:32:42;4.88;;;2.20;;
16743;SDS011;71724;-33.900;151.182;2023-07-30T00:35:11;5.75;;;2.38;;
16743;SDS011;71724;-33.900;151.182;2023-07-30T00:37:38;4.03;;;2.25;;
16743;SDS011;71724;-33.900;151.182;2023-07-30T00:40:06;4.30;;;1.90;;
16743;SDS011;71724;-33.900;151.182;2023-07-30T00:42:33;5.43;;;1.80;;
16743;SDS011;71724;-33.900;151.182;2023-07-30T00:45:01;5.53;;;1.98;;
16743;SDS011;71724;-33.900;151.182;2023-07-30T00:47:29;3.72;;;2.17;;
16743;SDS011;71724;-33.900;151.182;2023-07-30T00:49:57;3.78;;;2.08;;
16743;SDS011;71724;-33.900;151.182;2023-07-30T00:52:24;5.93;;;2.20;;
16743;SDS011;71724;-33.900;151.182;2023-07-30T00:54:52;5.07;;;2.20;;
16743;SDS011;71724;-33.900;151.182;2023-07-30T00:57:23;4.75;;;1.90;;
16743;SDS011;71724;-33.900;151.182;2023-07-30T00:59:51;3.63;;;2.00;;
16743;SDS011;71724;-33.900;151.182;2023-07-30T01:02:19;2.60;;;2.10;;
16743;SDS011;71724;-33.900;151.182;2023-07-30T01:04:47;3.35;;;1.98;;
16743;SDS011;71724;-33.900;151.182;2023-07-30T01:07:16;3.17;;;2.22;;
16743;SDS011;71724;-33.900;151.182;2023-07-30T01:09:44;5.07;;;1.80;;
16743;SDS011;71724;-33.900;151.182;2023-07-30T01:12:12;4.28;;;1.77;;
16743;SDS011;71724;-33.900;151.182;2023-07-30T01:14:40;3.35;;;1.63;;
16743;SDS011;71724;-33.900;151.182;2023-07-30T01:17:09;1.70;;;1.30;;
16743;SDS011;71724;-33.900;151.182;2023-07-30T01:19:38;3.22;;;1.27;;
16743;SDS011;71724;-33.900;151.182;2023-07-30T01:22:05;2.72;;;1.40;;
16743;SDS011;71724;-33.900;151.182;2023-07-30T01:24:33;2.00;;;1.40;;
16743;SDS011;71724;-33.900;151.182;2023-07-30T01:27:07;2.85;;;1.40;;
16743;SDS011;71724;-33.900;151.182;2023-07-30T01:29:42;4.30;;;1.80;;
16743;SDS011;71724;-33.900;151.182;2023-07-30T01:32:10;3.40;;;1.58;;
16743;SDS011;71724;-33.900;151.182;2023-07-30T01:34:40;3.13;;;1.42;;
16743;SDS011;71724;-33.900;151.182;2023-07-30T01:37:10;3.15;;;1.38;;
16743;SDS011;71724;-33.900;151.182;2023-07-30T01:39:39;1.52;;;1.20;;
16743;SDS011;71724;-33.900;151.182;2023-07-30T01:42:08;2.25;;;1.35;;
16743;SDS011;71724;-33.900;151.182;2023-07-30T01:44:39;1.58;;;1.25;;
16743;SDS011;71724;-33.900;151.182;2023-07-30T01:47:06;2.03;;;1.48;;
16743;SDS011;71724;-33.900;151.182;2023-07-30T01:49:34;3.72;;;1.83;;
16743;SDS011;71724;-33.900;151.182;2023-07-30T01:52:01;2.83;;;1.35;;
16743;SDS011;71724;-33.900;151.182;2023-07-30T01:54:28;3.33;;;1.00;;
16743;SDS011;71724;-33.900;151.182;2023-07-30T01:56:56;2.50;;;1.15;;
16743;SDS011;71724;-33.900;151.182;2023-07-30T01:59:23;1.58;;;1.10;;
16743;SDS011;71724;-33.900;151.182;2023-07-30T02:01:51;1.60;;;1.25;;
16743;SDS011;71724;-33.900;151.182;2023-07-30T02:04:18;3.38;;;1.40;;
16743;SDS011;71724;-33.900;151.182;2023-07-30T02:06:46;1.65;;;1.10;;
16743;SDS011;71724;-33.900;151.182;2023-07-30T02:09:14;1.88;;;1.20;;
16743;SDS011;71724;-33.900;151.182;2023-07-30T02:11:41;2.00;;;1.00;;
16743;SDS011;71724;-33.900;151.182;2023-07-30T02:14:09;3.03;;;1.00;;
16743;SDS011;71724;-33.900;151.182;2023-07-30T02:16:36;2.15;;;1.10;;
16743;SDS011;71724;-33.900;151.182;2023-07-30T02:19:04;1.70;;;1.00;;
16743;SDS011;71724;-33.900;151.182;2023-07-30T02:21:31;2.22;;;1.00;;
16743;SDS011;71724;-33.900;151.182;2023-07-30T02:24:01;1.67;;;0.90;;
16743;SDS011;71724;-33.900;151.182;2023-07-30T02:26:29;1.90;;;1.10;;
16743;SDS011;71724;-33.900;151.182;2023-07-30T02:28:56;2.20;;;1.17;;
16743;SDS011;71724;-33.900;151.182;2023-07-30T02:31:26;2.15;;;1.33;;
16743;SDS011;71724;-33.900;151.182;2023-07-30T02:33:53;3.08;;;0.90;;
16743;SDS011;71724;-33.900;151.182;2023-07-30T02:36:20;1.65;;;0.90;;
16743;SDS011;71724;-33.900;151.182;2023-07-30T02:38:48;3.42;;;1.73;;
16743;SDS011;71724;-33.900;151.182;2023-07-30T02:41:16;1.77;;;0.95;;
16743;SDS011;71724;-33.900;151.182;2023-07-30T02:43:43;3.05;;;1.00;;
16743;SDS011;71724;-33.900;151.182;2023-07-30T02:46:11;1.88;;;1.25;;
16743;SDS011;71724;-33.900;151.182;2023-07-30T02:48:38;0.90;;;0.90;;
16743;SDS011;71724;-33.900;151.182;2023-07-30T02:51:05;1.38;;;1.10;;
16743;SDS011;71724;-33.900;151.182;2023-07-30T02:53:33;2.05;;;1.27;;
16743;SDS011;71724;-33.900;151.182;2023-07-30T02:56:00;2.88;;;1.20;;
16743;SDS011;71724;-33.900;151.182;2023-07-30T02:58:27;2.00;;;1.10;;
16743;SDS011;71724;-33.900;151.182;2023-07-30T03:00:55;2.22;;;1.20;;
16743;SDS011;71724;-33.900;151.182;2023-07-30T03:03:32;2.03;;;1.10;;
16743;SDS011;71724;-33.900;151.182;2023-07-30T03:08:29;2.13;;;1.15;;
16743;SDS011;71724;-33.900;151.182;2023-07-30T03:10:58;1.85;;;1.15;;
16743;SDS011;71724;-33.900;151.182;2023-07-30T03:13:26;1.63;;;1.08;;
16743;SDS011;71724;-33.900;151.182;2023-07-30T03:15:53;1.52;;;1.20;;
16743;SDS011;71724;-33.900;151.182;2023-07-30T03:18:23;1.92;;;1.30;;
16743;SDS011;71724;-33.900;151.182;2023-07-30T03:20:50;3.25;;;1.20;;
16743;SDS011;71724;-33.900;151.182;2023-07-30T03:23:23;1.73;;;1.30;;
16743;SDS011;71724;-33.900;151.182;2023-07-30T03:25:50;2.17;;;1.30;;
16743;SDS011;71724;-33.900;151.182;2023-07-30T03:28:18;2.25;;;1.20;;
16743;SDS011;71724;-33.900;151.182;2023-07-30T03:30:45;1.40;;;1.30;;
16743;SDS011;71724;-33.900;151.182;2023-07-30T03:33:12;2.50;;;1.20;;
16743;SDS011;71724;-33.900;151.182;2023-07-30T03:35:40;1.27;;;0.93;;
16743;SDS011;71724;-33.900;151.182;2023-07-30T03:38:08;1.98;;;1.00;;
16743;SDS011;71724;-33.900;151.182;2023-07-30T03:40:35;2.83;;;1.10;;
16743;SDS011;71724;-33.900;151.182;2023-07-30T03:43:02;3.83;;;1.50;;
16743;SDS011;71724;-33.900;151.182;2023-07-30T03:45:30;1.70;;;1.20;;
16743;SDS011;71724;-33.900;151.182;2023-07-30T03:47:58;1.35;;;1.10;;
16743;SDS011;71724;-33.900;151.182;2023-07-30T03:50:25;1.52;;;0.98;;
16743;SDS011;71724;-33.900;151.182;2023-07-30T03:52:53;1.60;;;1.02;;
16743;SDS011;71724;-33.900;151.182;2023-07-30T03:55:20;3.13;;;1.20;;
16743;SDS011;71724;-33.900;151.182;2023-07-30T03:57:48;2.53;;;1.10;;
16743;SDS011;71724;-33.900;151.182;2023-07-30T04:00:15;4.00;;;1.38;;
16743;SDS011;71724;-33.900;151.182;2023-07-30T04:02:43;4.20;;;1.80;;
16743;SDS011;71724;-33.900;151.182;2023-07-30T04:05:13;2.95;;;1.30;;
16743;SDS011;71724;-33.900;151.182;2023-07-30T04:07:40;1.55;;;1.05;;
16743;SDS011;71724;-33.900;151.182;2023-07-30T04:10:08;1.90;;;1.30;;
16743;SDS011;71724;-33.900;151.182;2023-07-30T04:12:35;3.65;;;1.08;;
16743;SDS011;71724;-33.900;151.182;2023-07-30T04:15:07;1.30;;;0.95;;
16743;SDS011;71724;-33.900;151.182;2023-07-30T04:17:36;1.98;;;1.10;;
16743;SDS011;71724;-33.900;151.182;2023-07-30T04:20:04;1.25;;;1.00;;
16743;SDS011;71724;-33.900;151.182;2023-07-30T04:22:33;2.50;;;1.48;;
16743;SDS011;71724;-33.900;151.182;2023-07-30T04:25:02;2.05;;;1.38;;
16743;SDS011;71724;-33.900;151.182;2023-07-30T04:27:32;0.95;;;0.90;;
16743;SDS011;71724;-33.900;151.182;2023-07-30T04:30:00;2.75;;;1.20;;
16743;SDS011;71724;-33.900;151.182;2023-07-30T04:32:28;1.92;;;1.20;;
16743;SDS011;71724;-33.900;151.182;2023-07-30T04:34:56;1.10;;;1.10;;
16743;SDS011;71724;-33.900;151.182;2023-07-30T04:37:23;1.23;;;0.90;;
16743;SDS011;71724;-33.900;151.182;2023-07-30T04:39:52;2.35;;;1.45;;
16743;SDS011;71724;-33.900;151.182;2023-07-30T04:42:19;1.27;;;1.00;;
16743;SDS011;71724;-33.900;151.182;2023-07-30T04:44:47;4.15;;;1.58;;
16743;SDS011;71724;-33.900;151.182;2023-07-30T04:47:14;2.75;;;1.40;;
16743;SDS011;71724;-33.900;151.182;2023-07-30T04:49:41;1.83;;;1.20;;
16743;SDS011;71724;-33.900;151.182;2023-07-30T04:52:09;1.50;;;1.00;;
16743;SDS011;71724;-33.900;151.182;2023-07-30T04:54:37;1.35;;;1.02;;
16743;SDS011;71724;-33.900;151.182;2023-07-30T04:57:05;2.72;;;1.50;;
16743;SDS011;71724;-33.900;151.182;2023-07-30T05:02:05;1.15;;;1.05;;
16743;SDS011;71724;-33.900;151.182;2023-07-30T05:04:33;1.98;;;1.00;;
16743;SDS011;71724;-33.900;151.182;2023-07-30T05:07:00;1.58;;;1.10;;
16743;SDS011;71724;-33.900;151.182;2023-07-30T05:09:28;2.83;;;1.30;;
16743;SDS011;71724;-33.900;151.182;2023-07-30T05:11:55;2.22;;;1.58;;
16743;SDS011;71724;-33.900;151.182;2023-07-30T05:14:24;1.95;;;1.38;;
16743;SDS011;71724;-33.900;151.182;2023-07-30T05:16:51;1.40;;;1.23;;
16743;SDS011;71724;-33.900;151.182;2023-07-30T05:19:22;2.92;;;1.40;;
16743;SDS011;71724;-33.900;151.182;2023-07-30T05:21:52;1.77;;;1.25;;
16743;SDS011;71724;-33.900;151.182;2023-07-30T05:24:24;2.10;;;1.20;;
16743;SDS011;71724;-33.900;151.182;2023-07-30T05:26:51;3.53;;;1.20;;
16743;SDS011;71724;-33.900;151.182;2023-07-30T05:29:21;1.10;;;1.00;;
16743;SDS011;71724;-33.900;151.182;2023-07-30T05:31:48;1.50;;;1.13;;
16743;SDS011;71724;-33.900;151.182;2023-07-30T05:34:16;2.47;;;1.20;;
16743;SDS011;71724;-33.900;151.182;2023-07-30T05:36:43;1.27;;;1.13;;
16743;SDS011;71724;-33.900;151.182;2023-07-30T05:39:11;2.17;;;1.50;;
16743;SDS011;71724;-33.900;151.182;2023-07-30T05:41:39;1.67;;;1.27;;
16743;SDS011;71724;-33.900;151.182;2023-07-30T05:44:06;1.60;;;1.33;;
16743;SDS011;71724;-33.900;151.182;2023-07-30T05:46:34;2.83;;;1.40;;
16743;SDS011;71724;-33.900;151.182;2023-07-30T05:49:01;1.60;;;1.00;;
16743;SDS011;71724;-33.900;151.182;2023-07-30T05:51:28;2.55;;;1.30;;
16743;SDS011;71724;-33.900;151.182;2023-07-30T05:54:00;1.38;;;1.27;;
16743;SDS011;71724;-33.900;151.182;2023-07-30T05:56:28;1.50;;;1.20;;
16743;SDS011;71724;-33.900;151.182;2023-07-30T05:58:59;2.70;;;1.00;;
16743;SDS011;71724;-33.900;151.182;2023-07-30T06:01:26;1.23;;;1.13;;
16743;SDS011;71724;-33.900;151.182;2023-07-30T06:03:54;1.50;;;1.23;;
16743;SDS011;71724;-33.900;151.182;2023-07-30T06:06:21;2.38;;;1.38;;
16743;SDS011;71724;-33.900;151.182;2023-07-30T06:08:53;2.10;;;1.27;;
16743;SDS011;71724;-33.900;151.182;2023-07-30T06:11:20;1.30;;;1.20;;
16743;SDS011;71724;-33.900;151.182;2023-07-30T06:13:51;1.45;;;1.35;;
16743;SDS011;71724;-33.900;151.182;2023-07-30T06:16:18;1.77;;;1.30;;
16743;SDS011;71724;-33.900;151.182;2023-07-30T06:18:47;2.08;;;1.48;;
16743;SDS011;71724;-33.900;151.182;2023-07-30T06:21:17;2.55;;;1.60;;
16743;SDS011;71724;-33.900;151.182;2023-07-30T06:23:47;3.00;;;1.45;;
16743;SDS011;71724;-33.900;151.182;2023-07-30T06:26:15;1.48;;;1.17;;
16743;SDS011;71724;-33.900;151.182;2023-07-30T06:28:42;1.77;;;1.48;;
16743;SDS011;71724;-33.900;151.182;2023-07-30T06:31:09;3.25;;;1.67;;
16743;SDS011;71724;-33.900;151.182;2023-07-30T06:33:37;1.95;;;1.38;;
16743;SDS011;71724;-33.900;151.182;2023-07-30T06:36:04;1.65;;;1.42;;
16743;SDS011;71724;-33.900;151.182;2023-07-30T06:38:32;3.58;;;1.60;;
16743;SDS011;71724;-33.900;151.182;2023-07-30T06:40:59;2.00;;;1.10;;
16743;SDS011;71724;-33.900;151.182;2023-07-30T06:43:26;2.45;;;1.30;;
16743;SDS011;71724;-33.900;151.182;2023-07-30T06:45:54;1.75;;;1.38;;
16743;SDS011;71724;-33.900;151.182;2023-07-30T06:48:21;1.45;;;1.23;;
16743;SDS011;71724;-33.900;151.182;2023-07-30T06:50:49;2.70;;;1.70;;
16743;SDS011;71724;-33.900;151.182;2023-07-30T06:53:19;2.45;;;1.10;;
16743;SDS011;71724;-33.900;151.182;2023-07-30T06:55:46;1.50;;;1.10;;
16743;SDS011;71724;-33.900;151.182;2023-07-30T06:58:14;2.25;;;1.30;;
16743;SDS011;71724;-33.900;151.182;2023-07-30T07:00:41;6.50;;;1.27;;
16743;SDS011;71724;-33.900;151.182;2023-07-30T07:03:09;2.83;;;1.20;;
16743;SDS011;71724;-33.900;151.182;2023-07-30T07:05:36;2.70;;;1.20;;
16743;SDS011;71724;-33.900;151.182;2023-07-30T07:08:04;1.38;;;1.15;;
16743;SDS011;71724;-33.900;151.182;2023-07-30T07:10:31;1.63;;;1.40;;
16743;SDS011;71724;-33.900;151.182;2023-07-30T07:12:58;1.67;;;1.58;;
16743;SDS011;71724;-33.900;151.182;2023-07-30T07:15:26;3.08;;;1.85;;
16743;SDS011;71724;-33.900;151.182;2023-07-30T07:17:53;2.60;;;1.63;;
16743;SDS011;71724;-33.900;151.182;2023-07-30T07:20:20;1.73;;;1.40;;
16743;SDS011;71724;-33.900;151.182;2023-07-30T07:22:48;2.78;;;1.77;;
16743;SDS011;71724;-33.900;151.182;2023-07-30T07:25:15;5.65;;;2.00;;
16743;SDS011;71724;-33.900;151.182;2023-07-30T07:27:45;4.97;;;2.10;;
16743;SDS011;71724;-33.900;151.182;2023-07-30T07:30:12;4.32;;;1.95;;
16743;SDS011;71724;-33.900;151.182;2023-07-30T07:32:39;2.45;;;1.85;;
16743;SDS011;71724;-33.900;151.182;2023-07-30T07:35:07;4.85;;;2.20;;
16743;SDS011;71724;-33.900;151.182;2023-07-30T07:37:35;3.40;;;2.30;;
16743;SDS011;71724;-33.900;151.182;2023-07-30T07:40:03;6.57;;;2.35;;
16743;SDS011;71724;-33.900;151.182;2023-07-30T07:42:31;4.90;;;2.50;;
16743;SDS011;71724;-33.900;151.182;2023-07-30T07:44:59;9.07;;;2.55;;
16743;SDS011;71724;-33.900;151.182;2023-07-30T07:47:26;11.10;;;3.15;;
16743;SDS011;71724;-33.900;151.182;2023-07-30T07:49:53;7.93;;;3.33;;
16743;SDS011;71724;-33.900;151.182;2023-07-30T07:52:21;4.68;;;2.75;;
16743;SDS011;71724;-33.900;151.182;2023-07-30T07:54:48;4.63;;;2.65;;
16743;SDS011;71724;-33.900;151.182;2023-07-30T07:57:15;5.78;;;2.65;;
16743;SDS011;71724;-33.900;151.182;2023-07-30T07:59:43;5.78;;;3.17;;
16743;SDS011;71724;-33.900;151.182;2023-07-30T08:02:11;5.32;;;2.90;;
16743;SDS011;71724;-33.900;151.182;2023-07-30T08:04:38;4.65;;;2.90;;
16743;SDS011;71724;-33.900;151.182;2023-07-30T08:07:06;6.80;;;3.47;;
16743;SDS011;71724;-33.900;151.182;2023-07-30T08:09:33;7.65;;;4.05;;
16743;SDS011;71724;-33.900;151.182;2023-07-30T08:12:00;10.70;;;7.05;;
16743;SDS011;71724;-33.900;151.182;2023-07-30T08:14:28;19.77;;;9.15;;
16743;SDS011;71724;-33.900;151.182;2023-07-30T08:16:56;18.55;;;8.00;;
16743;SDS011;71724;-33.900;151.182;2023-07-30T08:19:24;12.32;;;7.15;;
16743;SDS011;71724;-33.900;151.182;2023-07-30T08:21:51;13.45;;;6.82;;
16743;SDS011;71724;-33.900;151.182;2023-07-30T08:24:22;9.93;;;6.07;;
16743;SDS011;71724;-33.900;151.182;2023-07-30T08:26:49;9.15;;;5.90;;
16743;SDS011;71724;-33.900;151.182;2023-07-30T08:29:17;12.75;;;6.90;;
16743;SDS011;71724;-33.900;151.182;2023-07-30T08:31:44;19.88;;;8.43;;
16743;SDS011;71724;-33.900;151.182;2023-07-30T08:34:11;16.80;;;8.32;;
16743;SDS011;71724;-33.900;151.182;2023-07-30T08:36:39;23.50;;;11.40;;
16743;SDS011;71724;-33.900;151.182;2023-07-30T08:39:07;22.38;;;11.75;;
16743;SDS011;71724;-33.900;151.182;2023-07-30T08:41:34;23.85;;;12.18;;
16743;SDS011;71724;-33.900;151.182;2023-07-30T08:44:01;27.35;;;11.02;;
16743;SDS011;71724;-33.900;151.182;2023-07-30T08:46:29;20.33;;;10.15;;
16743;SDS011;71724;-33.900;151.182;2023-07-30T08:48:56;19.48;;;9.75;;
16743;SDS011;71724;-33.900;151.182;2023-07-30T08:51:24;18.33;;;9.80;;
16743;SDS011;71724;-33.900;151.182;2023-07-30T08:53:52;16.88;;;8.40;;
16743;SDS011;71724;-33.900;151.182;2023-07-30T08:56:23;14.20;;;8.35;;
16743;SDS011;71724;-33.900;151.182;2023-07-30T08:58:51;16.17;;;7.75;;
16743;SDS011;71724;-33.900;151.182;2023-07-30T09:01:23;12.55;;;7.70;;
16743;SDS011;71724;-33.900;151.182;2023-07-30T09:03:59;11.63;;;7.25;;
16743;SDS011;71724;-33.900;151.182;2023-07-30T09:06:27;15.70;;;8.05;;
16743;SDS011;71724;-33.900;151.182;2023-07-30T09:08:57;11.98;;;6.55;;
16743;SDS011;71724;-33.900;151.182;2023-07-30T09:11:28;11.10;;;6.57;;
16743;SDS011;71724;-33.900;151.182;2023-07-30T09:13:56;13.27;;;7.32;;
16743;SDS011;71724;-33.900;151.182;2023-07-30T09:16:24;10.40;;;6.47;;
16743;SDS011;71724;-33.900;151.182;2023-07-30T09:18:52;11.85;;;6.47;;
16743;SDS011;71724;-33.900;151.182;2023-07-30T09:21:28;12.00;;;6.70;;
16743;SDS011;71724;-33.900;151.182;2023-07-30T09:24:03;12.48;;;6.68;;
16743;SDS011;71724;-33.900;151.182;2023-07-30T09:26:41;8.82;;;6.15;;
16743;SDS011;71724;-33.900;151.182;2023-07-30T09:29:09;11.15;;;6.43;;
16743;SDS011;71724;-33.900;151.182;2023-07-30T09:32:10;11.57;;;6.90;;
16743;SDS011;71724;-33.900;151.182;2023-07-30T09:34:34;9.57;;;5.53;;
16743;SDS011;71724;-33.900;151.182;2023-07-30T09:37:01;8.73;;;5.85;;
16743;SDS011;71724;-33.900;151.182;2023-07-30T09:39:29;7.63;;;5.00;;
16743;SDS011;71724;-33.900;151.182;2023-07-30T09:41:59;10.75;;;6.45;;
16743;SDS011;71724;-33.900;151.182;2023-07-30T09:44:27;11.60;;;5.25;;
16743;SDS011;71724;-33.900;151.182;2023-07-30T09:46:58;9.15;;;5.60;;
16743;SDS011;71724;-33.900;151.182;2023-07-30T09:49:31;11.02;;;6.88;;
16743;SDS011;71724;-33.900;151.182;2023-07-30T09:52:01;7.30;;;4.60;;
16743;SDS011;71724;-33.900;151.182;2023-07-30T09:54:29;8.57;;;6.68;;
16743;SDS011;71724;-33.900;151.182;2023-07-30T09:56:58;5.47;;;3.50;;
16743;SDS011;71724;-33.900;151.182;2023-07-30T09:59:26;6.70;;;4.55;;
16743;SDS011;71724;-33.900;151.182;2023-07-30T10:01:53;6.78;;;4.97;;
16743;SDS011;71724;-33.900;151.182;2023-07-30T10:04:22;7.75;;;4.05;;
16743;SDS011;71724;-33.900;151.182;2023-07-30T10:09:27;6.90;;;4.55;;
16743;SDS011;71724;-33.900;151.182;2023-07-30T10:12:04;5.13;;;3.55;;
16743;SDS011;71724;-33.900;151.182;2023-07-30T10:14:32;5.43;;;2.90;;
16743;SDS011;71724;-33.900;151.182;2023-07-30T10:16:59;10.80;;;9.23;;
16743;SDS011;71724;-33.900;151.182;2023-07-30T10:19:28;5.35;;;4.10;;
16743;SDS011;71724;-33.900;151.182;2023-07-30T10:21:58;6.32;;;3.50;;
16743;SDS011;71724;-33.900;151.182;2023-07-30T10:24:58;4.40;;;3.10;;
16743;SDS011;71724;-33.900;151.182;2023-07-30T10:27:41;6.50;;;2.90;;
16743;SDS011;71724;-33.900;151.182;2023-07-30T10:30:15;6.68;;;4.82;;
16743;SDS011;71724;-33.900;151.182;2023-07-30T10:38:34;5.20;;;4.03;;
16743;SDS011;71724;-33.900;151.182;2023-07-30T10:43:38;5.57;;;3.28;;
16743;SDS011;71724;-33.900;151.182;2023-07-30T10:46:09;3.63;;;2.70;;
16743;SDS011;71724;-33.900;151.182;2023-07-30T10:48:39;3.80;;;2.63;;
16743;SDS011;71724;-33.900;151.182;2023-07-30T10:51:09;6.32;;;4.15;;
16743;SDS011;71724;-33.900;151.182;2023-07-30T10:53:44;5.80;;;4.78;;
16743;SDS011;71724;-33.900;151.182;2023-07-30T10:56:17;7.33;;;5.60;;
16743;SDS011;71724;-33.900;151.182;2023-07-30T10:58:53;5.78;;;4.97;;
16743;SDS011;71724;-33.900;151.182;2023-07-30T11:01:23;4.30;;;3.08;;
16743;SDS011;71724;-33.900;151.182;2023-07-30T11:03:52;6.35;;;5.75;;
16743;SDS011;71724;-33.900;151.182;2023-07-30T11:06:23;5.85;;;2.97;;
16743;SDS011;71724;-33.900;151.182;2023-07-30T11:08:51;5.75;;;4.13;;
16743;SDS011;71724;-33.900;151.182;2023-07-30T11:11:19;5.53;;;2.95;;
16743;SDS011;71724;-33.900;151.182;2023-07-30T11:13:50;3.58;;;2.50;;
16743;SDS011;71724;-33.900;151.182;2023-07-30T11:16:17;4.70;;;2.45;;
16743;SDS011;71724;-33.900;151.182;2023-07-30T11:18:45;5.22;;;3.20;;
16743;SDS011;71724;-33.900;151.182;2023-07-30T11:21:14;5.63;;;4.28;;
16743;SDS011;71724;-33.900;151.182;2023-07-30T11:23:45;3.28;;;2.20;;
16743;SDS011;71724;-33.900;151.182;2023-07-30T11:26:15;8.13;;;3.75;;
16743;SDS011;71724;-33.900;151.182;2023-07-30T11:28:43;4.70;;;2.28;;
16743;SDS011;71724;-33.900;151.182;2023-07-30T11:31:12;4.65;;;2.05;;
16743;SDS011;71724;-33.900;151.182;2023-07-30T11:33:47;3.25;;;2.55;;
16743;SDS011;71724;-33.900;151.182;2023-07-30T11:36:20;5.13;;;3.53;;
16743;SDS011;71724;-33.900;151.182;2023-07-30T11:38:50;5.53;;;4.03;;
16743;SDS011;71724;-33.900;151.182;2023-07-30T11:41:19;3.65;;;2.50;;
16743;SDS011;71724;-33.900;151.182;2023-07-30T11:43:48;4.63;;;2.88;;
16743;SDS011;71724;-33.900;151.182;2023-07-30T11:46:17;4.47;;;3.75;;
16743;SDS011;71724;-33.900;151.182;2023-07-30T11:48:48;5.75;;;3.35;;
16743;SDS011;71724;-33.900;151.182;2023-07-30T11:51:26;4.65;;;2.70;;
16743;SDS011;71724;-33.900;151.182;2023-07-30T11:53:58;2.75;;;2.20;;
16743;SDS011;71724;-33.900;151.182;2023-07-30T11:56:33;4.82;;;3.70;;
16743;SDS011;71724;-33.900;151.182;2023-07-30T11:59:06;3.22;;;2.60;;
16743;SDS011;71724;-33.900;151.182;2023-07-30T12:01:37;3.10;;;2.10;;
16743;SDS011;71724;-33.900;151.182;2023-07-30T12:04:05;4.22;;;3.42;;
16743;SDS011;71724;-33.900;151.182;2023-07-30T12:09:14;2.45;;;1.92;;
16743;SDS011;71724;-33.900;151.182;2023-07-30T12:11:53;5.28;;;3.67;;
16743;SDS011;71724;-33.900;151.182;2023-07-30T12:14:24;6.68;;;4.00;;
16743;SDS011;71724;-33.900;151.182;2023-07-30T12:17:01;3.00;;;2.28;;
16743;SDS011;71724;-33.900;151.182;2023-07-30T12:19:29;3.67;;;2.38;;
16743;SDS011;71724;-33.900;151.182;2023-07-30T12:21:56;7.93;;;2.58;;
16743;SDS011;71724;-33.900;151.182;2023-07-30T12:24:24;3.30;;;2.22;;
16743;SDS011;71724;-33.900;151.182;2023-07-30T12:26:51;5.55;;;2.88;;
16743;SDS011;71724;-33.900;151.182;2023-07-30T12:29:21;5.70;;;3.03;;
16743;SDS011;71724;-33.900;151.182;2023-07-30T12:31:49;2.85;;;1.98;;
16743;SDS011;71724;-33.900;151.182;2023-07-30T12:34:19;4.00;;;1.92;;
16743;SDS011;71724;-33.900;151.182;2023-07-30T12:36:48;4.15;;;2.13;;
16743;SDS011;71724;-33.900;151.182;2023-07-30T12:39:16;3.72;;;2.30;;
16743;SDS011;71724;-33.900;151.182;2023-07-30T12:41:43;3.80;;;2.13;;
16743;SDS011;71724;-33.900;151.182;2023-07-30T12:44:10;5.60;;;2.13;;
16743;SDS011;71724;-33.900;151.182;2023-07-30T12:46:38;3.20;;;2.10;;
16743;SDS011;71724;-33.900;151.182;2023-07-30T12:49:05;2.45;;;1.83;;
16743;SDS011;71724;-33.900;151.182;2023-07-30T12:51:33;5.97;;;1.83;;
16743;SDS011;71724;-33.900;151.182;2023-07-30T12:54:00;1.85;;;1.75;;
16743;SDS011;71724;-33.900;151.182;2023-07-30T12:56:27;2.67;;;1.70;;
16743;SDS011;71724;-33.900;151.182;2023-07-30T12:58:55;3.15;;;1.90;;
16743;SDS011;71724;-33.900;151.182;2023-07-30T13:01:22;3.60;;;1.90;;
16743;SDS011;71724;-33.900;151.182;2023-07-30T13:03:49;2.72;;;1.65;;
16743;SDS011;71724;-33.900;151.182;2023-07-30T13:06:20;2.67;;;1.60;;
16743;SDS011;71724;-33.900;151.182;2023-07-30T13:08:47;2.50;;;1.58;;
16743;SDS011;71724;-33.900;151.182;2023-07-30T13:11:15;3.17;;;1.80;;
16743;SDS011;71724;-33.900;151.182;2023-07-30T13:13:42;2.35;;;1.73;;
16743;SDS011;71724;-33.900;151.182;2023-07-30T13:16:09;3.03;;;1.60;;
16743;SDS011;71724;-33.900;151.182;2023-07-30T13:18:37;3.10;;;1.83;;
16743;SDS011;71724;-33.900;151.182;2023-07-30T13:21:04;2.50;;;1.50;;
16743;SDS011;71724;-33.900;151.182;2023-07-30T13:23:31;1.67;;;1.48;;
16743;SDS011;71724;-33.900;151.182;2023-07-30T13:25:59;3.53;;;1.50;;
16743;SDS011;71724;-33.900;151.182;2023-07-30T13:28:28;1.48;;;1.25;;
16743;SDS011;71724;-33.900;151.182;2023-07-30T13:30:56;2.25;;;1.55;;
16743;SDS011;71724;-33.900;151.182;2023-07-30T13:33:23;2.95;;;1.70;;
16743;SDS011;71724;-33.900;151.182;2023-07-30T13:35:50;1.60;;;1.40;;
16743;SDS011;71724;-33.900;151.182;2023-07-30T13:38:18;1.70;;;1.30;;
16743;SDS011;71724;-33.900;151.182;2023-07-30T13:40:46;3.08;;;1.80;;
16743;SDS011;71724;-33.900;151.182;2023-07-30T13:43:14;4.07;;;1.73;;
16743;SDS011;71724;-33.900;151.182;2023-07-30T13:45:41;1.92;;;1.40;;
16743;SDS011;71724;-33.900;151.182;2023-07-30T13:48:09;2.95;;;1.60;;
16743;SDS011;71724;-33.900;151.182;2023-07-30T13:50:36;3.40;;;1.65;;
16743;SDS011;71724;-33.900;151.182;2023-07-30T13:53:04;3.53;;;1.90;;
16743;SDS011;71724;-33.900;151.182;2023-07-30T13:55:31;3.72;;;1.67;;
16743;SDS011;71724;-33.900;151.182;2023-07-30T13:57:59;3.50;;;1.98;;
16743;SDS011;71724;-33.900;151.182;2023-07-30T14:00:27;6.85;;;1.90;;
16743;SDS011;71724;-33.900;151.182;2023-07-30T14:02:54;5.53;;;1.90;;
16743;SDS011;71724;-33.900;151.182;2023-07-30T14:05:21;3.10;;;1.85;;
16743;SDS011;71724;-33.900;151.182;2023-07-30T14:07:49;2.95;;;2.03;;
16743;SDS011;71724;-33.900;151.182;2023-07-30T14:10:19;4.55;;;2.17;;
16743;SDS011;71724;-33.900;151.182;2023-07-30T14:12:47;4.90;;;2.17;;
16743;SDS011;71724;-33.900;151.182;2023-07-30T14:15:14;2.97;;;1.70;;
16743;SDS011;71724;-33.900;151.182;2023-07-30T14:17:42;5.50;;;2.20;;
16743;SDS011;71724;-33.900;151.182;2023-07-30T14:20:09;3.85;;;2.20;;
16743;SDS011;71724;-33.900;151.182;2023-07-30T14:22:37;4.97;;;1.98;;
16743;SDS011;71724;-33.900;151.182;2023-07-30T14:25:04;4.05;;;2.08;;
16743;SDS011;71724;-33.900;151.182;2023-07-30T14:27:32;5.35;;;2.10;;
16743;SDS011;71724;-33.900;151.182;2023-07-30T14:29:59;4.13;;;2.08;;
16743;SDS011;71724;-33.900;151.182;2023-07-30T14:32:27;3.92;;;1.83;;
16743;SDS011;71724;-33.900;151.182;2023-07-30T14:34:54;3.53;;;2.10;;